sensor_id;sensor_type;location;lat;lon;timestamp;P1;durP1;ratioP1;P2;durP2;ratioP2
17644;SDS011;8941;51.986;4.340;2022-10-16T00:02:08;1.50;;;1.30;;
17644;SDS011;8941;51.986;4.340;2022-10-16T00:04:34;1.03;;;0.87;;
17644;SDS011;8941;51.986;4.340;2022-10-16T00:07:00;3.13;;;1.23;;
17644;SDS011;8941;51.986;4.340;2022-10-16T00:09:28;2.33;;;1.73;;
17644;SDS011;8941;51.986;4.340;2022-10-16T00:11:55;1.80;;;1.27;;
17644;SDS011;8941;51.986;4.340;2022-10-16T00:14:21;1.70;;;1.37;;
17644;SDS011;8941;51.986;4.340;2022-10-16T00:16:47;3.07;;;1.50;;
17644;SDS011;8941;51.986;4.340;2022-10-16T00:19:14;1.20;;;1.20;;
17644;SDS011;8941;51.986;4.340;2022-10-16T00:21:40;1.10;;;1.10;;
17644;SDS011;8941;51.986;4.340;2022-10-16T00:24:08;4.00;;;1.03;;
17644;SDS011;8941;51.986;4.340;2022-10-16T00:26:36;1.33;;;0.97;;
17644;SDS011;8941;51.986;4.340;2022-10-16T00:29:03;1.90;;;0.77;;
17644;SDS011;8941;51.986;4.340;2022-10-16T00:31:30;2.23;;;1.00;;
17644;SDS011;8941;51.986;4.340;2022-10-16T00:33:57;0.70;;;0.60;;
17644;SDS011;8941;51.986;4.340;2022-10-16T00:36:24;2.33;;;1.00;;
17644;SDS011;8941;51.986;4.340;2022-10-16T00:38:50;0.90;;;0.73;;
17644;SDS011;8941;51.986;4.340;2022-10-16T00:41:20;4.17;;;0.97;;
17644;SDS011;8941;51.986;4.340;2022-10-16T00:43:48;2.73;;;1.20;;
17644;SDS011;8941;51.986;4.340;2022-10-16T00:46:16;4.33;;;1.57;;
17644;SDS011;8941;51.986;4.340;2022-10-16T00:48:45;0.80;;;0.80;;
17644;SDS011;8941;51.986;4.340;2022-10-16T00:51:13;1.07;;;0.90;;
17644;SDS011;8941;51.986;4.340;2022-10-16T00:53:39;2.13;;;1.20;;
17644;SDS011;8941;51.986;4.340;2022-10-16T00:56:06;1.40;;;1.17;;
17644;SDS011;8941;51.986;4.340;2022-10-16T00:58:32;0.90;;;0.80;;
17644;SDS011;8941;51.986;4.340;2022-10-16T01:01:00;1.77;;;1.20;;
17644;SDS011;8941;51.986;4.340;2022-10-16T01:03:27;1.20;;;1.20;;
17644;SDS011;8941;51.986;4.340;2022-10-16T01:05:58;2.50;;;1.93;;
17644;SDS011;8941;51.986;4.340;2022-10-16T01:08:29;2.63;;;0.97;;
17644;SDS011;8941;51.986;4.340;2022-10-16T01:10:59;2.63;;;1.43;;
17644;SDS011;8941;51.986;4.340;2022-10-16T01:13:27;2.30;;;1.40;;
17644;SDS011;8941;51.986;4.340;2022-10-16T01:15:54;1.43;;;1.27;;
17644;SDS011;8941;51.986;4.340;2022-10-16T01:18:26;2.53;;;1.47;;
17644;SDS011;8941;51.986;4.340;2022-10-16T01:20:56;0.83;;;0.83;;
17644;SDS011;8941;51.986;4.340;2022-10-16T01:23:27;2.13;;;1.60;;
17644;SDS011;8941;51.986;4.340;2022-10-16T01:28:44;2.80;;;1.23;;
17644;SDS011;8941;51.986;4.340;2022-10-16T01:31:13;1.80;;;1.20;;
17644;SDS011;8941;51.986;4.340;2022-10-16T01:33:40;1.20;;;1.20;;
17644;SDS011;8941;51.986;4.340;2022-10-16T01:36:09;1.73;;;1.63;;
17644;SDS011;8941;51.986;4.340;2022-10-16T01:38:36;2.80;;;1.07;;
17644;SDS011;8941;51.986;4.340;2022-10-16T01:41:04;1.37;;;0.80;;
17644;SDS011;8941;51.986;4.340;2022-10-16T01:43:33;2.33;;;1.07;;
17644;SDS011;8941;51.986;4.340;2022-10-16T01:46:02;2.00;;;1.43;;
17644;SDS011;8941;51.986;4.340;2022-10-16T01:48:29;1.63;;;1.53;;
17644;SDS011;8941;51.986;4.340;2022-10-16T01:50:58;1.70;;;1.47;;
17644;SDS011;8941;51.986;4.340;2022-10-16T01:53:25;3.13;;;1.77;;
17644;SDS011;8941;51.986;4.340;2022-10-16T01:55:52;1.20;;;1.03;;
17644;SDS011;8941;51.986;4.340;2022-10-16T01:58:20;1.70;;;1.60;;
17644;SDS011;8941;51.986;4.340;2022-10-16T02:00:48;1.37;;;1.10;;
17644;SDS011;8941;51.986;4.340;2022-10-16T02:03:17;3.73;;;1.73;;
17644;SDS011;8941;51.986;4.340;2022-10-16T02:05:45;1.07;;;0.83;;
17644;SDS011;8941;51.986;4.340;2022-10-16T02:08:12;2.33;;;1.20;;
17644;SDS011;8941;51.986;4.340;2022-10-16T02:10:38;1.53;;;1.10;;
17644;SDS011;8941;51.986;4.340;2022-10-16T02:13:06;1.03;;;1.03;;
17644;SDS011;8941;51.986;4.340;2022-10-16T02:15:33;1.20;;;1.20;;
17644;SDS011;8941;51.986;4.340;2022-10-16T02:18:00;1.37;;;1.33;;
17644;SDS011;8941;51.986;4.340;2022-10-16T02:20:29;2.27;;;1.37;;
17644;SDS011;8941;51.986;4.340;2022-10-16T02:22:58;1.90;;;1.80;;
17644;SDS011;8941;51.986;4.340;2022-10-16T02:25:26;2.37;;;1.90;;
17644;SDS011;8941;51.986;4.340;2022-10-16T02:27:55;2.20;;;1.40;;
17644;SDS011;8941;51.986;4.340;2022-10-16T02:30:24;1.60;;;1.53;;
17644;SDS011;8941;51.986;4.340;2022-10-16T02:32:51;1.40;;;1.37;;
17644;SDS011;8941;51.986;4.340;2022-10-16T02:35:19;2.50;;;1.20;;
17644;SDS011;8941;51.986;4.340;2022-10-16T02:37:48;1.00;;;1.00;;
17644;SDS011;8941;51.986;4.340;2022-10-16T02:40:15;0.93;;;0.93;;
17644;SDS011;8941;51.986;4.340;2022-10-16T02:42:42;1.03;;;0.57;;
17644;SDS011;8941;51.986;4.340;2022-10-16T02:45:09;2.17;;;1.60;;
17644;SDS011;8941;51.986;4.340;2022-10-16T02:47:35;2.20;;;1.20;;
17644;SDS011;8941;51.986;4.340;2022-10-16T02:50:02;1.17;;;0.97;;
17644;SDS011;8941;51.986;4.340;2022-10-16T02:52:29;1.70;;;1.27;;
17644;SDS011;8941;51.986;4.340;2022-10-16T02:54:56;1.53;;;1.43;;
17644;SDS011;8941;51.986;4.340;2022-10-16T02:57:23;1.60;;;1.40;;
17644;SDS011;8941;51.986;4.340;2022-10-16T02:59:49;1.77;;;1.60;;
17644;SDS011;8941;51.986;4.340;2022-10-16T03:02:15;1.67;;;1.67;;
17644;SDS011;8941;51.986;4.340;2022-10-16T03:04:42;3.03;;;2.00;;
17644;SDS011;8941;51.986;4.340;2022-10-16T03:07:08;1.50;;;1.50;;
17644;SDS011;8941;51.986;4.340;2022-10-16T03:09:35;3.47;;;1.87;;
17644;SDS011;8941;51.986;4.340;2022-10-16T03:12:02;1.37;;;1.37;;
17644;SDS011;8941;51.986;4.340;2022-10-16T03:14:29;1.53;;;1.43;;
17644;SDS011;8941;51.986;4.340;2022-10-16T03:16:55;1.70;;;1.53;;
17644;SDS011;8941;51.986;4.340;2022-10-16T03:19:22;1.17;;;1.10;;
17644;SDS011;8941;51.986;4.340;2022-10-16T03:21:48;1.30;;;1.27;;
17644;SDS011;8941;51.986;4.340;2022-10-16T03:24:14;3.37;;;1.27;;
17644;SDS011;8941;51.986;4.340;2022-10-16T03:26:41;4.43;;;2.10;;
17644;SDS011;8941;51.986;4.340;2022-10-16T03:29:08;3.57;;;1.47;;
17644;SDS011;8941;51.986;4.340;2022-10-16T03:31:35;1.90;;;0.70;;
17644;SDS011;8941;51.986;4.340;2022-10-16T03:34:01;3.80;;;1.40;;
17644;SDS011;8941;51.986;4.340;2022-10-16T03:36:27;1.90;;;1.07;;
17644;SDS011;8941;51.986;4.340;2022-10-16T03:38:54;1.30;;;1.20;;
17644;SDS011;8941;51.986;4.340;2022-10-16T03:41:20;4.57;;;1.57;;
17644;SDS011;8941;51.986;4.340;2022-10-16T03:43:47;1.00;;;1.00;;
17644;SDS011;8941;51.986;4.340;2022-10-16T03:46:14;0.97;;;0.97;;
17644;SDS011;8941;51.986;4.340;2022-10-16T03:48:41;1.23;;;1.10;;
17644;SDS011;8941;51.986;4.340;2022-10-16T03:51:07;3.37;;;1.17;;
17644;SDS011;8941;51.986;4.340;2022-10-16T03:53:34;2.27;;;1.17;;
17644;SDS011;8941;51.986;4.340;2022-10-16T03:56:00;4.50;;;1.50;;
17644;SDS011;8941;51.986;4.340;2022-10-16T03:58:26;3.47;;;1.10;;
17644;SDS011;8941;51.986;4.340;2022-10-16T04:00:53;3.30;;;1.53;;
17644;SDS011;8941;51.986;4.340;2022-10-16T04:03:21;1.90;;;1.53;;
17644;SDS011;8941;51.986;4.340;2022-10-16T04:05:48;2.67;;;0.90;;
17644;SDS011;8941;51.986;4.340;2022-10-16T04:08:14;1.33;;;1.00;;
17644;SDS011;8941;51.986;4.340;2022-10-16T04:10:42;1.00;;;0.93;;
17644;SDS011;8941;51.986;4.340;2022-10-16T04:13:08;2.00;;;1.70;;
17644;SDS011;8941;51.986;4.340;2022-10-16T04:15:34;1.23;;;1.13;;
17644;SDS011;8941;51.986;4.340;2022-10-16T04:18:01;1.83;;;1.73;;
17644;SDS011;8941;51.986;4.340;2022-10-16T04:20:29;1.93;;;1.70;;
17644;SDS011;8941;51.986;4.340;2022-10-16T04:22:56;2.33;;;1.83;;
17644;SDS011;8941;51.986;4.340;2022-10-16T04:25:22;1.27;;;1.13;;
17644;SDS011;8941;51.986;4.340;2022-10-16T04:27:49;0.90;;;0.90;;
17644;SDS011;8941;51.986;4.340;2022-10-16T04:30:15;4.50;;;1.30;;
17644;SDS011;8941;51.986;4.340;2022-10-16T04:32:42;2.43;;;1.10;;
17644;SDS011;8941;51.986;4.340;2022-10-16T04:35:08;1.63;;;1.00;;
17644;SDS011;8941;51.986;4.340;2022-10-16T04:37:36;1.77;;;0.87;;
17644;SDS011;8941;51.986;4.340;2022-10-16T04:40:03;3.53;;;1.40;;
17644;SDS011;8941;51.986;4.340;2022-10-16T04:42:30;1.50;;;0.83;;
17644;SDS011;8941;51.986;4.340;2022-10-16T04:44:56;3.97;;;1.43;;
17644;SDS011;8941;51.986;4.340;2022-10-16T04:47:23;4.23;;;1.50;;
17644;SDS011;8941;51.986;4.340;2022-10-16T04:49:49;1.53;;;1.20;;
17644;SDS011;8941;51.986;4.340;2022-10-16T04:52:15;1.70;;;1.17;;
17644;SDS011;8941;51.986;4.340;2022-10-16T04:54:43;3.53;;;1.40;;
17644;SDS011;8941;51.986;4.340;2022-10-16T04:57:11;3.60;;;1.30;;
17644;SDS011;8941;51.986;4.340;2022-10-16T04:59:37;2.10;;;1.40;;
17644;SDS011;8941;51.986;4.340;2022-10-16T05:02:03;1.50;;;1.10;;
17644;SDS011;8941;51.986;4.340;2022-10-16T05:04:30;5.17;;;1.40;;
17644;SDS011;8941;51.986;4.340;2022-10-16T05:06:57;3.63;;;1.33;;
17644;SDS011;8941;51.986;4.340;2022-10-16T05:09:23;2.60;;;1.10;;
17644;SDS011;8941;51.986;4.340;2022-10-16T05:11:51;3.07;;;1.30;;
17644;SDS011;8941;51.986;4.340;2022-10-16T05:14:17;1.03;;;0.83;;
17644;SDS011;8941;51.986;4.340;2022-10-16T05:19:34;3.77;;;1.63;;
17644;SDS011;8941;51.986;4.340;2022-10-16T05:22:00;2.47;;;1.50;;
17644;SDS011;8941;51.986;4.340;2022-10-16T05:24:27;2.67;;;1.37;;
17644;SDS011;8941;51.986;4.340;2022-10-16T05:26:55;2.10;;;1.70;;
17644;SDS011;8941;51.986;4.340;2022-10-16T05:29:21;1.17;;;1.07;;
17644;SDS011;8941;51.986;4.340;2022-10-16T05:31:49;1.80;;;1.70;;
17644;SDS011;8941;51.986;4.340;2022-10-16T05:34:16;4.37;;;1.60;;
17644;SDS011;8941;51.986;4.340;2022-10-16T05:36:42;2.73;;;0.90;;
17644;SDS011;8941;51.986;4.340;2022-10-16T05:39:10;7.77;;;1.20;;
17644;SDS011;8941;51.986;4.340;2022-10-16T05:41:36;1.97;;;1.43;;
17644;SDS011;8941;51.986;4.340;2022-10-16T05:44:05;2.23;;;1.30;;
17644;SDS011;8941;51.986;4.340;2022-10-16T05:46:31;5.53;;;1.27;;
17644;SDS011;8941;51.986;4.340;2022-10-16T05:48:58;1.53;;;1.00;;
17644;SDS011;8941;51.986;4.340;2022-10-16T05:51:24;1.63;;;1.20;;
17644;SDS011;8941;51.986;4.340;2022-10-16T05:53:53;1.47;;;1.37;;
17644;SDS011;8941;51.986;4.340;2022-10-16T05:56:20;1.57;;;1.40;;
17644;SDS011;8941;51.986;4.340;2022-10-16T05:58:46;0.90;;;0.83;;
17644;SDS011;8941;51.986;4.340;2022-10-16T06:01:14;1.50;;;1.00;;
17644;SDS011;8941;51.986;4.340;2022-10-16T06:03:41;2.73;;;1.10;;
17644;SDS011;8941;51.986;4.340;2022-10-16T06:06:08;2.43;;;1.20;;
17644;SDS011;8941;51.986;4.340;2022-10-16T06:08:35;1.67;;;1.00;;
17644;SDS011;8941;51.986;4.340;2022-10-16T06:11:02;5.40;;;1.80;;
17644;SDS011;8941;51.986;4.340;2022-10-16T06:13:29;1.60;;;0.80;;
17644;SDS011;8941;51.986;4.340;2022-10-16T06:15:56;4.93;;;1.97;;
17644;SDS011;8941;51.986;4.340;2022-10-16T06:18:24;3.90;;;1.40;;
17644;SDS011;8941;51.986;4.340;2022-10-16T06:20:51;2.77;;;1.10;;
17644;SDS011;8941;51.986;4.340;2022-10-16T06:23:17;5.17;;;1.50;;
17644;SDS011;8941;51.986;4.340;2022-10-16T06:25:43;4.20;;;1.33;;
17644;SDS011;8941;51.986;4.340;2022-10-16T06:28:10;3.50;;;1.17;;
17644;SDS011;8941;51.986;4.340;2022-10-16T06:30:36;3.10;;;1.10;;
17644;SDS011;8941;51.986;4.340;2022-10-16T06:33:03;3.90;;;0.83;;
17644;SDS011;8941;51.986;4.340;2022-10-16T06:35:30;2.93;;;1.17;;
17644;SDS011;8941;51.986;4.340;2022-10-16T06:40:57;5.43;;;1.17;;
17644;SDS011;8941;51.986;4.340;2022-10-16T06:43:23;6.10;;;1.30;;
17644;SDS011;8941;51.986;4.340;2022-10-16T06:45:52;3.07;;;1.40;;
17644;SDS011;8941;51.986;4.340;2022-10-16T06:48:19;1.77;;;0.93;;
17644;SDS011;8941;51.986;4.340;2022-10-16T06:50:55;2.97;;;1.10;;
17644;SDS011;8941;51.986;4.340;2022-10-16T06:53:24;2.40;;;1.00;;
17644;SDS011;8941;51.986;4.340;2022-10-16T06:55:51;1.30;;;1.20;;
17644;SDS011;8941;51.986;4.340;2022-10-16T06:58:17;5.53;;;1.60;;
17644;SDS011;8941;51.986;4.340;2022-10-16T07:00:44;1.50;;;0.93;;
17644;SDS011;8941;51.986;4.340;2022-10-16T07:03:10;3.40;;;1.03;;
17644;SDS011;8941;51.986;4.340;2022-10-16T07:05:37;1.57;;;1.10;;
17644;SDS011;8941;51.986;4.340;2022-10-16T07:08:17;1.60;;;1.30;;
17644;SDS011;8941;51.986;4.340;2022-10-16T07:10:43;2.90;;;1.20;;
17644;SDS011;8941;51.986;4.340;2022-10-16T07:13:12;3.37;;;1.17;;
17644;SDS011;8941;51.986;4.340;2022-10-16T07:15:39;4.10;;;1.13;;
17644;SDS011;8941;51.986;4.340;2022-10-16T07:18:06;1.77;;;1.50;;
17644;SDS011;8941;51.986;4.340;2022-10-16T07:20:34;3.63;;;1.43;;
17644;SDS011;8941;51.986;4.340;2022-10-16T07:23:02;3.60;;;1.13;;
17644;SDS011;8941;51.986;4.340;2022-10-16T07:25:30;6.13;;;1.43;;
17644;SDS011;8941;51.986;4.340;2022-10-16T07:27:56;4.47;;;1.20;;
17644;SDS011;8941;51.986;4.340;2022-10-16T07:30:23;2.47;;;1.60;;
17644;SDS011;8941;51.986;4.340;2022-10-16T07:32:49;2.30;;;1.23;;
17644;SDS011;8941;51.986;4.340;2022-10-16T07:35:15;1.83;;;1.10;;
17644;SDS011;8941;51.986;4.340;2022-10-16T07:37:44;3.40;;;1.43;;
17644;SDS011;8941;51.986;4.340;2022-10-16T07:40:10;5.63;;;1.57;;
17644;SDS011;8941;51.986;4.340;2022-10-16T07:42:38;3.00;;;1.40;;
17644;SDS011;8941;51.986;4.340;2022-10-16T07:45:05;4.53;;;1.27;;
17644;SDS011;8941;51.986;4.340;2022-10-16T07:47:31;2.73;;;1.20;;
17644;SDS011;8941;51.986;4.340;2022-10-16T07:49:58;2.67;;;1.20;;
17644;SDS011;8941;51.986;4.340;2022-10-16T07:52:24;3.07;;;1.83;;
17644;SDS011;8941;51.986;4.340;2022-10-16T07:54:50;6.43;;;1.47;;
17644;SDS011;8941;51.986;4.340;2022-10-16T07:57:19;4.20;;;1.40;;
17644;SDS011;8941;51.986;4.340;2022-10-16T07:59:48;3.23;;;1.83;;
17644;SDS011;8941;51.986;4.340;2022-10-16T08:02:31;7.57;;;2.13;;
17644;SDS011;8941;51.986;4.340;2022-10-16T08:04:57;5.07;;;1.40;;
17644;SDS011;8941;51.986;4.340;2022-10-16T08:07:37;4.70;;;1.53;;
17644;SDS011;8941;51.986;4.340;2022-10-16T08:10:04;2.30;;;1.20;;
17644;SDS011;8941;51.986;4.340;2022-10-16T08:12:30;5.70;;;1.40;;
17644;SDS011;8941;51.986;4.340;2022-10-16T08:14:58;5.83;;;1.70;;
17644;SDS011;8941;51.986;4.340;2022-10-16T08:17:25;3.37;;;1.57;;
17644;SDS011;8941;51.986;4.340;2022-10-16T08:19:51;6.63;;;1.87;;
17644;SDS011;8941;51.986;4.340;2022-10-16T08:22:18;6.97;;;1.57;;
17644;SDS011;8941;51.986;4.340;2022-10-16T08:24:44;3.63;;;1.33;;
17644;SDS011;8941;51.986;4.340;2022-10-16T08:27:11;4.87;;;1.77;;
17644;SDS011;8941;51.986;4.340;2022-10-16T08:29:37;3.60;;;1.40;;
17644;SDS011;8941;51.986;4.340;2022-10-16T08:32:05;4.27;;;1.17;;
17644;SDS011;8941;51.986;4.340;2022-10-16T08:34:31;7.07;;;2.53;;
17644;SDS011;8941;51.986;4.340;2022-10-16T08:36:58;4.50;;;1.90;;
17644;SDS011;8941;51.986;4.340;2022-10-16T08:39:24;5.53;;;1.90;;
17644;SDS011;8941;51.986;4.340;2022-10-16T08:41:57;5.83;;;1.77;;
17644;SDS011;8941;51.986;4.340;2022-10-16T08:44:35;4.00;;;2.30;;
17644;SDS011;8941;51.986;4.340;2022-10-16T08:47:11;5.43;;;1.10;;
17644;SDS011;8941;51.986;4.340;2022-10-16T08:49:39;6.93;;;2.20;;
17644;SDS011;8941;51.986;4.340;2022-10-16T08:52:08;4.33;;;2.10;;
17644;SDS011;8941;51.986;4.340;2022-10-16T08:54:37;6.13;;;2.20;;
17644;SDS011;8941;51.986;4.340;2022-10-16T08:57:07;6.20;;;2.63;;
17644;SDS011;8941;51.986;4.340;2022-10-16T08:59:35;6.37;;;2.50;;
17644;SDS011;8941;51.986;4.340;2022-10-16T09:02:02;8.83;;;2.00;;
17644;SDS011;8941;51.986;4.340;2022-10-16T09:07:15;4.30;;;1.23;;
17644;SDS011;8941;51.986;4.340;2022-10-16T09:10:04;10.33;;;1.87;;
17644;SDS011;8941;51.986;4.340;2022-10-16T09:12:35;2.43;;;1.33;;
17644;SDS011;8941;51.986;4.340;2022-10-16T09:15:07;2.27;;;1.53;;
17644;SDS011;8941;51.986;4.340;2022-10-16T09:17:40;4.67;;;1.47;;
17644;SDS011;8941;51.986;4.340;2022-10-16T09:20:20;3.50;;;1.60;;
17644;SDS011;8941;51.986;4.340;2022-10-16T09:22:52;7.33;;;2.80;;
17644;SDS011;8941;51.986;4.340;2022-10-16T09:25:20;3.60;;;1.63;;
17644;SDS011;8941;51.986;4.340;2022-10-16T09:27:52;5.77;;;1.37;;
17644;SDS011;8941;51.986;4.340;2022-10-16T09:30:20;5.73;;;2.53;;
17644;SDS011;8941;51.986;4.340;2022-10-16T09:32:47;2.97;;;1.57;;
17644;SDS011;8941;51.986;4.340;2022-10-16T09:35:16;2.00;;;1.80;;
17644;SDS011;8941;51.986;4.340;2022-10-16T09:37:44;4.97;;;1.67;;
17644;SDS011;8941;51.986;4.340;2022-10-16T09:40:23;5.13;;;1.53;;
17644;SDS011;8941;51.986;4.340;2022-10-16T09:42:49;7.57;;;2.40;;
17644;SDS011;8941;51.986;4.340;2022-10-16T09:45:21;8.43;;;2.07;;
17644;SDS011;8941;51.986;4.340;2022-10-16T09:47:48;6.63;;;2.47;;
17644;SDS011;8941;51.986;4.340;2022-10-16T09:50:22;3.20;;;1.67;;
17644;SDS011;8941;51.986;4.340;2022-10-16T09:52:50;6.10;;;2.43;;
17644;SDS011;8941;51.986;4.340;2022-10-16T09:55:18;7.87;;;2.40;;
17644;SDS011;8941;51.986;4.340;2022-10-16T09:57:48;5.97;;;2.40;;
17644;SDS011;8941;51.986;4.340;2022-10-16T10:00:15;6.20;;;2.33;;
17644;SDS011;8941;51.986;4.340;2022-10-16T10:02:42;6.93;;;1.90;;
17644;SDS011;8941;51.986;4.340;2022-10-16T10:05:16;7.33;;;2.40;;
17644;SDS011;8941;51.986;4.340;2022-10-16T10:07:44;7.50;;;2.30;;
17644;SDS011;8941;51.986;4.340;2022-10-16T10:10:19;4.90;;;1.73;;
17644;SDS011;8941;51.986;4.340;2022-10-16T10:12:46;3.43;;;1.40;;
17644;SDS011;8941;51.986;4.340;2022-10-16T10:15:13;9.17;;;3.03;;
17644;SDS011;8941;51.986;4.340;2022-10-16T10:17:46;6.33;;;2.00;;
17644;SDS011;8941;51.986;4.340;2022-10-16T10:20:15;9.80;;;2.67;;
17644;SDS011;8941;51.986;4.340;2022-10-16T10:22:47;7.90;;;2.73;;
17644;SDS011;8941;51.986;4.340;2022-10-16T10:25:24;5.53;;;1.97;;
17644;SDS011;8941;51.986;4.340;2022-10-16T10:28:02;5.73;;;2.40;;
17644;SDS011;8941;51.986;4.340;2022-10-16T10:30:34;9.00;;;3.23;;
17644;SDS011;8941;51.986;4.340;2022-10-16T10:33:09;6.53;;;2.80;;
17644;SDS011;8941;51.986;4.340;2022-10-16T10:35:40;5.27;;;1.83;;
17644;SDS011;8941;51.986;4.340;2022-10-16T10:38:16;5.97;;;2.53;;
17644;SDS011;8941;51.986;4.340;2022-10-16T10:40:49;4.77;;;2.80;;
17644;SDS011;8941;51.986;4.340;2022-10-16T10:43:24;7.47;;;1.83;;
17644;SDS011;8941;51.986;4.340;2022-10-16T10:45:54;6.47;;;2.10;;
17644;SDS011;8941;51.986;4.340;2022-10-16T10:48:25;6.10;;;1.87;;
17644;SDS011;8941;51.986;4.340;2022-10-16T10:50:57;8.10;;;2.40;;
17644;SDS011;8941;51.986;4.340;2022-10-16T10:53:36;5.00;;;2.33;;
17644;SDS011;8941;51.986;4.340;2022-10-16T10:56:08;5.33;;;2.60;;
17644;SDS011;8941;51.986;4.340;2022-10-16T10:58:50;6.37;;;1.83;;
17644;SDS011;8941;51.986;4.340;2022-10-16T11:01:21;10.67;;;2.37;;
17644;SDS011;8941;51.986;4.340;2022-10-16T11:06:56;4.50;;;1.47;;
17644;SDS011;8941;51.986;4.340;2022-10-16T11:09:25;4.97;;;2.40;;
17644;SDS011;8941;51.986;4.340;2022-10-16T11:15:11;4.47;;;2.37;;
17644;SDS011;8941;51.986;4.340;2022-10-16T11:17:43;6.47;;;2.13;;
17644;SDS011;8941;51.986;4.340;2022-10-16T11:20:31;4.50;;;2.27;;
17644;SDS011;8941;51.986;4.340;2022-10-16T11:23:02;3.30;;;1.60;;
17644;SDS011;8941;51.986;4.340;2022-10-16T11:25:35;3.37;;;1.13;;
17644;SDS011;8941;51.986;4.340;2022-10-16T11:28:07;4.17;;;1.83;;
17644;SDS011;8941;51.986;4.340;2022-10-16T11:30:40;9.03;;;2.50;;
17644;SDS011;8941;51.986;4.340;2022-10-16T11:33:13;2.77;;;2.00;;
17644;SDS011;8941;51.986;4.340;2022-10-16T11:35:47;6.97;;;2.03;;
17644;SDS011;8941;51.986;4.340;2022-10-16T11:40:58;4.53;;;2.63;;
17644;SDS011;8941;51.986;4.340;2022-10-16T11:43:28;2.63;;;1.47;;
17644;SDS011;8941;51.986;4.340;2022-10-16T11:48:48;1.67;;;1.50;;
17644;SDS011;8941;51.986;4.340;2022-10-16T11:51:19;9.37;;;2.27;;
17644;SDS011;8941;51.986;4.340;2022-10-16T11:53:53;9.97;;;2.07;;
17644;SDS011;8941;51.986;4.340;2022-10-16T11:56:23;8.07;;;2.70;;
17644;SDS011;8941;51.986;4.340;2022-10-16T11:58:52;18.30;;;2.97;;
17644;SDS011;8941;51.986;4.340;2022-10-16T12:01:26;9.37;;;2.10;;
17644;SDS011;8941;51.986;4.340;2022-10-16T12:03:59;4.70;;;1.50;;
17644;SDS011;8941;51.986;4.340;2022-10-16T12:06:30;5.87;;;2.20;;
17644;SDS011;8941;51.986;4.340;2022-10-16T12:08:58;4.80;;;1.87;;
17644;SDS011;8941;51.986;4.340;2022-10-16T12:11:33;3.93;;;1.87;;
17644;SDS011;8941;51.986;4.340;2022-10-16T12:14:03;4.73;;;2.20;;
17644;SDS011;8941;51.986;4.340;2022-10-16T12:16:30;6.57;;;2.53;;
17644;SDS011;8941;51.986;4.340;2022-10-16T12:19:11;5.03;;;1.97;;
17644;SDS011;8941;51.986;4.340;2022-10-16T12:21:38;7.40;;;2.37;;
17644;SDS011;8941;51.986;4.340;2022-10-16T12:24:19;9.13;;;2.37;;
17644;SDS011;8941;51.986;4.340;2022-10-16T12:26:46;8.47;;;2.70;;
17644;SDS011;8941;51.986;4.340;2022-10-16T12:29:18;7.00;;;1.83;;
17644;SDS011;8941;51.986;4.340;2022-10-16T12:31:47;5.80;;;2.03;;
17644;SDS011;8941;51.986;4.340;2022-10-16T12:34:28;2.57;;;1.43;;
17644;SDS011;8941;51.986;4.340;2022-10-16T12:37:09;10.27;;;2.67;;
17644;SDS011;8941;51.986;4.340;2022-10-16T12:39:47;5.60;;;2.50;;
17644;SDS011;8941;51.986;4.340;2022-10-16T12:42:22;6.57;;;2.13;;
17644;SDS011;8941;51.986;4.340;2022-10-16T12:44:49;5.07;;;1.80;;
17644;SDS011;8941;51.986;4.340;2022-10-16T12:47:20;4.27;;;2.23;;
17644;SDS011;8941;51.986;4.340;2022-10-16T12:49:51;5.40;;;2.47;;
17644;SDS011;8941;51.986;4.340;2022-10-16T12:52:28;8.97;;;2.90;;
17644;SDS011;8941;51.986;4.340;2022-10-16T12:54:58;4.50;;;1.53;;
17644;SDS011;8941;51.986;4.340;2022-10-16T12:57:30;6.80;;;2.73;;
17644;SDS011;8941;51.986;4.340;2022-10-16T13:00:01;7.50;;;1.87;;
17644;SDS011;8941;51.986;4.340;2022-10-16T13:02:39;5.83;;;1.87;;
17644;SDS011;8941;51.986;4.340;2022-10-16T13:05:14;5.77;;;2.30;;
17644;SDS011;8941;51.986;4.340;2022-10-16T13:07:50;8.53;;;2.43;;
17644;SDS011;8941;51.986;4.340;2022-10-16T13:10:21;6.93;;;3.10;;
17644;SDS011;8941;51.986;4.340;2022-10-16T13:13:09;7.40;;;2.63;;
17644;SDS011;8941;51.986;4.340;2022-10-16T13:18:22;4.80;;;1.97;;
17644;SDS011;8941;51.986;4.340;2022-10-16T13:20:54;5.37;;;1.80;;
17644;SDS011;8941;51.986;4.340;2022-10-16T13:23:23;4.93;;;2.23;;
17644;SDS011;8941;51.986;4.340;2022-10-16T13:25:57;4.50;;;1.90;;
17644;SDS011;8941;51.986;4.340;2022-10-16T13:28:27;2.63;;;1.33;;
17644;SDS011;8941;51.986;4.340;2022-10-16T13:31:01;4.27;;;2.07;;
17644;SDS011;8941;51.986;4.340;2022-10-16T13:33:30;6.80;;;2.53;;
17644;SDS011;8941;51.986;4.340;2022-10-16T13:35:59;2.53;;;1.60;;
17644;SDS011;8941;51.986;4.340;2022-10-16T13:38:27;6.13;;;1.83;;
17644;SDS011;8941;51.986;4.340;2022-10-16T13:40:54;7.40;;;1.97;;
17644;SDS011;8941;51.986;4.340;2022-10-16T13:43:22;6.17;;;2.23;;
17644;SDS011;8941;51.986;4.340;2022-10-16T13:45:53;6.43;;;1.90;;
17644;SDS011;8941;51.986;4.340;2022-10-16T13:48:20;6.43;;;1.73;;
17644;SDS011;8941;51.986;4.340;2022-10-16T13:50:46;9.20;;;2.77;;
17644;SDS011;8941;51.986;4.340;2022-10-16T13:53:25;4.87;;;2.20;;
17644;SDS011;8941;51.986;4.340;2022-10-16T13:55:51;6.57;;;1.87;;
17644;SDS011;8941;51.986;4.340;2022-10-16T13:58:18;12.73;;;2.30;;
17644;SDS011;8941;51.986;4.340;2022-10-16T14:00:52;5.60;;;1.90;;
17644;SDS011;8941;51.986;4.340;2022-10-16T14:03:19;7.03;;;2.40;;
17644;SDS011;8941;51.986;4.340;2022-10-16T14:05:46;10.77;;;2.93;;
17644;SDS011;8941;51.986;4.340;2022-10-16T14:08:14;6.10;;;1.97;;
17644;SDS011;8941;51.986;4.340;2022-10-16T14:10:42;4.80;;;2.27;;
17644;SDS011;8941;51.986;4.340;2022-10-16T14:13:15;5.63;;;2.00;;
17644;SDS011;8941;51.986;4.340;2022-10-16T14:15:45;7.77;;;2.10;;
17644;SDS011;8941;51.986;4.340;2022-10-16T14:18:19;3.90;;;2.20;;
17644;SDS011;8941;51.986;4.340;2022-10-16T14:21:13;6.80;;;2.37;;
17644;SDS011;8941;51.986;4.340;2022-10-16T14:23:41;2.87;;;1.67;;
17644;SDS011;8941;51.986;4.340;2022-10-16T14:26:26;7.10;;;2.67;;
17644;SDS011;8941;51.986;4.340;2022-10-16T14:29:12;6.00;;;2.53;;
17644;SDS011;8941;51.986;4.340;2022-10-16T14:34:56;5.43;;;1.97;;
17644;SDS011;8941;51.986;4.340;2022-10-16T14:37:40;15.47;;;4.17;;
17644;SDS011;8941;51.986;4.340;2022-10-16T14:40:20;6.83;;;2.90;;
17644;SDS011;8941;51.986;4.340;2022-10-16T14:43:00;5.73;;;2.67;;
17644;SDS011;8941;51.986;4.340;2022-10-16T14:45:43;9.53;;;3.03;;
17644;SDS011;8941;51.986;4.340;2022-10-16T14:48:30;10.13;;;2.67;;
17644;SDS011;8941;51.986;4.340;2022-10-16T14:50:57;4.80;;;1.80;;
17644;SDS011;8941;51.986;4.340;2022-10-16T14:53:23;8.67;;;2.37;;
17644;SDS011;8941;51.986;4.340;2022-10-16T14:55:50;7.03;;;3.13;;
17644;SDS011;8941;51.986;4.340;2022-10-16T14:58:25;9.77;;;3.17;;
17644;SDS011;8941;51.986;4.340;2022-10-16T15:00:52;6.10;;;1.77;;
17644;SDS011;8941;51.986;4.340;2022-10-16T15:03:18;9.37;;;2.13;;
17644;SDS011;8941;51.986;4.340;2022-10-16T15:05:45;8.50;;;2.90;;
17644;SDS011;8941;51.986;4.340;2022-10-16T15:08:11;9.00;;;2.50;;
17644;SDS011;8941;51.986;4.340;2022-10-16T15:10:38;6.83;;;2.47;;
17644;SDS011;8941;51.986;4.340;2022-10-16T15:13:05;11.10;;;3.50;;
17644;SDS011;8941;51.986;4.340;2022-10-16T15:15:34;5.07;;;2.13;;
17644;SDS011;8941;51.986;4.340;2022-10-16T15:18:01;8.73;;;2.50;;
17644;SDS011;8941;51.986;4.340;2022-10-16T15:20:28;7.97;;;3.27;;
17644;SDS011;8941;51.986;4.340;2022-10-16T15:22:56;5.30;;;1.93;;
17644;SDS011;8941;51.986;4.340;2022-10-16T15:25:27;5.83;;;1.90;;
17644;SDS011;8941;51.986;4.340;2022-10-16T15:27:54;8.30;;;2.73;;
17644;SDS011;8941;51.986;4.340;2022-10-16T15:30:20;7.37;;;3.03;;
17644;SDS011;8941;51.986;4.340;2022-10-16T15:32:48;4.43;;;1.97;;
17644;SDS011;8941;51.986;4.340;2022-10-16T15:35:14;4.90;;;2.43;;
17644;SDS011;8941;51.986;4.340;2022-10-16T15:37:41;5.63;;;2.60;;
17644;SDS011;8941;51.986;4.340;2022-10-16T15:40:08;9.13;;;3.27;;
17644;SDS011;8941;51.986;4.340;2022-10-16T15:42:35;7.07;;;3.07;;